sensor_id;sensor_type;location;lat;lon;timestamp;temperature;humidity
38973;DHT22;25333;50.762;4.470;2023-04-24T00:00:01;9.00;99.90
38973;DHT22;25333;50.762;4.470;2023-04-24T00:02:28;9.00;99.90
38973;DHT22;25333;50.762;4.470;2023-04-24T00:04:55;9.00;99.90
38973;DHT22;25333;50.762;4.470;2023-04-24T00:07:21;9.00;99.90
38973;DHT22;25333;50.762;4.470;2023-04-24T00:09:47;9.00;99.90
38973;DHT22;25333;50.762;4.470;2023-04-24T00:12:13;8.90;99.90
38973;DHT22;25333;50.762;4.470;2023-04-24T00:14:39;9.00;99.90
38973;DHT22;25333;50.762;4.470;2023-04-24T00:17:04;8.90;99.90
38973;DHT22;25333;50.762;4.470;2023-04-24T00:19:30;9.00;99.90
38973;DHT22;25333;50.762;4.470;2023-04-24T00:21:56;9.00;99.90
38973;DHT22;25333;50.762;4.470;2023-04-24T00:24:21;9.00;99.90
38973;DHT22;25333;50.762;4.470;2023-04-24T00:26:47;9.00;99.90
38973;DHT22;25333;50.762;4.470;2023-04-24T00:29:13;9.00;99.90
38973;DHT22;25333;50.762;4.470;2023-04-24T00:31:39;9.00;99.90
38973;DHT22;25333;50.762;4.470;2023-04-24T00:34:05;8.90;99.90
38973;DHT22;25333;50.762;4.470;2023-04-24T00:36:31;8.90;99.90
38973;DHT22;25333;50.762;4.470;2023-04-24T00:38:57;8.90;99.90
38973;DHT22;25333;50.762;4.470;2023-04-24T00:41:24;8.90;99.90
38973;DHT22;25333;50.762;4.470;2023-04-24T00:43:51;8.90;99.90
38973;DHT22;25333;50.762;4.470;2023-04-24T00:46:17;8.90;99.90
38973;DHT22;25333;50.762;4.470;2023-04-24T00:48:43;8.90;99.90
38973;DHT22;25333;50.762;4.470;2023-04-24T00:51:09;8.90;99.90
38973;DHT22;25333;50.762;4.470;2023-04-24T00:53:35;8.80;99.90
38973;DHT22;25333;50.762;4.470;2023-04-24T00:56:01;8.90;99.90
38973;DHT22;25333;50.762;4.470;2023-04-24T00:58:27;8.80;99.90
38973;DHT22;25333;50.762;4.470;2023-04-24T01:00:54;8.90;99.90
38973;DHT22;25333;50.762;4.470;2023-04-24T01:03:22;8.90;99.90
38973;DHT22;25333;50.762;4.470;2023-04-24T01:05:49;8.90;99.90
38973;DHT22;25333;50.762;4.470;2023-04-24T01:08:15;8.90;99.90
38973;DHT22;25333;50.762;4.470;2023-04-24T01:10:41;8.80;99.90
38973;DHT22;25333;50.762;4.470;2023-04-24T01:13:10;8.80;99.90
38973;DHT22;25333;50.762;4.470;2023-04-24T01:15:36;8.70;99.90
38973;DHT22;25333;50.762;4.470;2023-04-24T01:18:02;8.70;99.90
38973;DHT22;25333;50.762;4.470;2023-04-24T01:20:40;8.60;99.90
38973;DHT22;25333;50.762;4.470;2023-04-24T01:23:08;8.60;99.90
38973;DHT22;25333;50.762;4.470;2023-04-24T01:25:34;8.50;99.90
38973;DHT22;25333;50.762;4.470;2023-04-24T01:28:00;8.50;99.90
38973;DHT22;25333;50.762;4.470;2023-04-24T01:30:29;8.40;99.90
38973;DHT22;25333;50.762;4.470;2023-04-24T01:32:55;8.40;99.90
38973;DHT22;25333;50.762;4.470;2023-04-24T01:35:21;8.40;99.90
38973;DHT22;25333;50.762;4.470;2023-04-24T01:40:17;8.40;99.90
38973;DHT22;25333;50.762;4.470;2023-04-24T01:42:43;8.30;99.90
38973;DHT22;25333;50.762;4.470;2023-04-24T01:45:11;8.30;99.90
38973;DHT22;25333;50.762;4.470;2023-04-24T01:47:38;8.30;99.90
38973;DHT22;25333;50.762;4.470;2023-04-24T01:50:04;8.30;99.90
38973;DHT22;25333;50.762;4.470;2023-04-24T01:52:30;8.30;99.90
38973;DHT22;25333;50.762;4.470;2023-04-24T01:55:04;8.30;99.90
38973;DHT22;25333;50.762;4.470;2023-04-24T01:57:31;8.30;99.90
38973;DHT22;25333;50.762;4.470;2023-04-24T01:59:57;8.30;99.90
38973;DHT22;25333;50.762;4.470;2023-04-24T02:02:23;8.30;99.90
38973;DHT22;25333;50.762;4.470;2023-04-24T02:04:55;8.20;99.90
38973;DHT22;25333;50.762;4.470;2023-04-24T02:07:21;8.20;99.90
38973;DHT22;25333;50.762;4.470;2023-04-24T02:09:46;8.20;99.90
38973;DHT22;25333;50.762;4.470;2023-04-24T02:12:12;8.20;99.90
38973;DHT22;25333;50.762;4.470;2023-04-24T02:14:38;8.20;99.90
38973;DHT22;25333;50.762;4.470;2023-04-24T02:17:04;8.20;99.90
38973;DHT22;25333;50.762;4.470;2023-04-24T02:19:30;8.20;99.90
38973;DHT22;25333;50.762;4.470;2023-04-24T02:21:56;8.20;99.90
38973;DHT22;25333;50.762;4.470;2023-04-24T02:24:22;8.20;99.90
38973;DHT22;25333;50.762;4.470;2023-04-24T02:26:47;8.20;99.90
38973;DHT22;25333;50.762;4.470;2023-04-24T02:29:13;8.20;99.90
38973;DHT22;25333;50.762;4.470;2023-04-24T02:31:39;8.20;99.90
38973;DHT22;25333;50.762;4.470;2023-04-24T02:34:04;8.20;99.90
38973;DHT22;25333;50.762;4.470;2023-04-24T02:36:31;8.20;99.90
38973;DHT22;25333;50.762;4.470;2023-04-24T02:38:56;8.20;99.90
38973;DHT22;25333;50.762;4.470;2023-04-24T02:41:22;8.20;99.90
38973;DHT22;25333;50.762;4.470;2023-04-24T02:43:48;8.20;99.90
38973;DHT22;25333;50.762;4.470;2023-04-24T02:46:13;8.20;99.90
38973;DHT22;25333;50.762;4.470;2023-04-24T02:48:39;8.20;99.90
38973;DHT22;25333;50.762;4.470;2023-04-24T02:51:05;8.20;99.90
38973;DHT22;25333;50.762;4.470;2023-04-24T02:53:32;8.20;99.90
38973;DHT22;25333;50.762;4.470;2023-04-24T02:55:57;8.20;99.90
38973;DHT22;25333;50.762;4.470;2023-04-24T02:58:23;8.20;99.90
38973;DHT22;25333;50.762;4.470;2023-04-24T03:00:49;8.20;99.90
38973;DHT22;25333;50.762;4.470;2023-04-24T03:03:18;8.20;99.90
38973;DHT22;25333;50.762;4.470;2023-04-24T03:05:43;8.20;99.90
38973;DHT22;25333;50.762;4.470;2023-04-24T03:08:09;8.20;99.90
38973;DHT22;25333;50.762;4.470;2023-04-24T03:10:35;8.20;99.90
38973;DHT22;25333;50.762;4.470;2023-04-24T03:13:01;8.20;99.90
38973;DHT22;25333;50.762;4.470;2023-04-24T03:15:27;8.20;99.90
38973;DHT22;25333;50.762;4.470;2023-04-24T03:17:53;8.20;99.90
38973;DHT22;25333;50.762;4.470;2023-04-24T03:20:18;8.20;99.90
38973;DHT22;25333;50.762;4.470;2023-04-24T03:22:44;8.10;99.90
38973;DHT22;25333;50.762;4.470;2023-04-24T03:25:10;8.20;99.90
38973;DHT22;25333;50.762;4.470;2023-04-24T03:27:35;8.10;99.90
38973;DHT22;25333;50.762;4.470;2023-04-24T03:30:01;8.10;99.90
38973;DHT22;25333;50.762;4.470;2023-04-24T03:32:27;8.10;99.90
38973;DHT22;25333;50.762;4.470;2023-04-24T03:34:53;8.00;99.90
38973;DHT22;25333;50.762;4.470;2023-04-24T03:37:18;8.10;99.90
38973;DHT22;25333;50.762;4.470;2023-04-24T03:39:44;8.10;99.90
38973;DHT22;25333;50.762;4.470;2023-04-24T03:42:10;8.10;99.90
38973;DHT22;25333;50.762;4.470;2023-04-24T03:44:36;8.10;99.90
38973;DHT22;25333;50.762;4.470;2023-04-24T03:47:02;8.10;99.90
38973;DHT22;25333;50.762;4.470;2023-04-24T03:49:27;8.10;99.90
38973;DHT22;25333;50.762;4.470;2023-04-24T03:51:53;8.00;99.90
38973;DHT22;25333;50.762;4.470;2023-04-24T03:54:19;8.10;99.90
38973;DHT22;25333;50.762;4.470;2023-04-24T03:56:45;8.10;99.90
38973;DHT22;25333;50.762;4.470;2023-04-24T03:59:11;8.10;99.90
38973;DHT22;25333;50.762;4.470;2023-04-24T04:01:36;8.10;99.90
38973;DHT22;25333;50.762;4.470;2023-04-24T04:04:08;8.00;99.90
38973;DHT22;25333;50.762;4.470;2023-04-24T04:06:35;8.00;99.90
38973;DHT22;25333;50.762;4.470;2023-04-24T04:09:01;8.00;99.90
38973;DHT22;25333;50.762;4.470;2023-04-24T04:11:28;8.10;99.90
38973;DHT22;25333;50.762;4.470;2023-04-24T04:13:54;8.20;99.90
38973;DHT22;25333;50.762;4.470;2023-04-24T04:16:20;8.10;99.90
38973;DHT22;25333;50.762;4.470;2023-04-24T04:18:46;8.20;99.90
38973;DHT22;25333;50.762;4.470;2023-04-24T04:21:11;8.20;99.90
38973;DHT22;25333;50.762;4.470;2023-04-24T04:23:37;8.20;99.90
38973;DHT22;25333;50.762;4.470;2023-04-24T04:26:03;8.20;99.90
38973;DHT22;25333;50.762;4.470;2023-04-24T04:28:29;8.20;99.90
38973;DHT22;25333;50.762;4.470;2023-04-24T04:30:57;8.30;99.90
38973;DHT22;25333;50.762;4.470;2023-04-24T04:33:23;8.30;99.90
38973;DHT22;25333;50.762;4.470;2023-04-24T04:35:49;8.30;99.90
38973;DHT22;25333;50.762;4.470;2023-04-24T04:38:18;8.30;99.90
38973;DHT22;25333;50.762;4.470;2023-04-24T04:40:44;8.30;99.90
38973;DHT22;25333;50.762;4.470;2023-04-24T04:43:10;8.30;99.90
38973;DHT22;25333;50.762;4.470;2023-04-24T04:45:37;8.20;99.90
38973;DHT22;25333;50.762;4.470;2023-04-24T04:48:04;8.30;99.90
38973;DHT22;25333;50.762;4.470;2023-04-24T04:50:31;8.40;99.90
38973;DHT22;25333;50.762;4.470;2023-04-24T04:52:57;8.40;99.90
38973;DHT22;25333;50.762;4.470;2023-04-24T04:55:22;8.40;99.90
38973;DHT22;25333;50.762;4.470;2023-04-24T04:57:48;8.30;99.90
38973;DHT22;25333;50.762;4.470;2023-04-24T05:00:17;8.20;99.90
38973;DHT22;25333;50.762;4.470;2023-04-24T05:02:46;8.30;99.90
38973;DHT22;25333;50.762;4.470;2023-04-24T05:05:12;8.30;99.90
38973;DHT22;25333;50.762;4.470;2023-04-24T05:07:37;8.20;99.90
38973;DHT22;25333;50.762;4.470;2023-04-24T05:10:03;8.30;99.90
38973;DHT22;25333;50.762;4.470;2023-04-24T05:12:29;8.30;99.90
38973;DHT22;25333;50.762;4.470;2023-04-24T05:14:57;8.30;99.90
38973;DHT22;25333;50.762;4.470;2023-04-24T05:17:26;8.30;99.90
38973;DHT22;25333;50.762;4.470;2023-04-24T05:19:54;8.20;99.90
38973;DHT22;25333;50.762;4.470;2023-04-24T05:22:34;8.20;99.90
38973;DHT22;25333;50.762;4.470;2023-04-24T05:25:21;8.20;99.90
38973;DHT22;25333;50.762;4.470;2023-04-24T05:27:47;8.20;99.90
38973;DHT22;25333;50.762;4.470;2023-04-24T05:30:13;8.30;99.90
38973;DHT22;25333;50.762;4.470;2023-04-24T05:32:39;8.30;99.90
38973;DHT22;25333;50.762;4.470;2023-04-24T05:35:11;8.30;99.90
38973;DHT22;25333;50.762;4.470;2023-04-24T05:37:45;8.30;99.90
38973;DHT22;25333;50.762;4.470;2023-04-24T05:40:11;8.30;99.90
38973;DHT22;25333;50.762;4.470;2023-04-24T05:45:30;8.30;99.90
38973;DHT22;25333;50.762;4.470;2023-04-24T05:47:57;8.10;99.90
38973;DHT22;25333;50.762;4.470;2023-04-24T05:50:32;8.20;99.90
38973;DHT22;25333;50.762;4.470;2023-04-24T05:53:04;8.10;99.90
38973;DHT22;25333;50.762;4.470;2023-04-24T05:55:37;8.10;99.90
38973;DHT22;25333;50.762;4.470;2023-04-24T05:58:06;8.10;99.90
38973;DHT22;25333;50.762;4.470;2023-04-24T06:00:31;8.10;99.90
38973;DHT22;25333;50.762;4.470;2023-04-24T06:02:59;8.10;99.90
38973;DHT22;25333;50.762;4.470;2023-04-24T06:05:25;8.10;99.90
38973;DHT22;25333;50.762;4.470;2023-04-24T06:07:51;8.10;99.90
38973;DHT22;25333;50.762;4.470;2023-04-24T06:10:20;8.00;99.90
38973;DHT22;25333;50.762;4.470;2023-04-24T06:16:42;8.00;99.90
38973;DHT22;25333;50.762;4.470;2023-04-24T06:49:57;8.20;99.90
38973;DHT22;25333;50.762;4.470;2023-04-24T06:55:39;8.00;99.90
38973;DHT22;25333;50.762;4.470;2023-04-24T06:58:05;8.10;99.90
38973;DHT22;25333;50.762;4.470;2023-04-24T07:00:31;8.10;99.90
38973;DHT22;25333;50.762;4.470;2023-04-24T07:02:57;8.20;99.90
38973;DHT22;25333;50.762;4.470;2023-04-24T07:05:23;8.20;99.90
38973;DHT22;25333;50.762;4.470;2023-04-24T07:07:48;8.20;99.90
38973;DHT22;25333;50.762;4.470;2023-04-24T07:10:15;8.20;99.90
38973;DHT22;25333;50.762;4.470;2023-04-24T07:12:40;8.20;99.90
38973;DHT22;25333;50.762;4.470;2023-04-24T07:15:07;8.30;99.90
38973;DHT22;25333;50.762;4.470;2023-04-24T07:17:34;8.40;99.90
38973;DHT22;25333;50.762;4.470;2023-04-24T07:20:00;8.40;99.90
38973;DHT22;25333;50.762;4.470;2023-04-24T07:22:26;8.40;99.90
38973;DHT22;25333;50.762;4.470;2023-04-24T07:24:52;8.40;99.90
38973;DHT22;25333;50.762;4.470;2023-04-24T07:27:17;8.50;99.90
38973;DHT22;25333;50.762;4.470;2023-04-24T07:29:43;8.50;99.90
38973;DHT22;25333;50.762;4.470;2023-04-24T07:32:09;8.50;99.90
38973;DHT22;25333;50.762;4.470;2023-04-24T07:34:35;8.60;99.90
38973;DHT22;25333;50.762;4.470;2023-04-24T07:37:00;8.60;99.90
38973;DHT22;25333;50.762;4.470;2023-04-24T07:39:27;8.60;99.90
38973;DHT22;25333;50.762;4.470;2023-04-24T07:41:53;8.80;99.90
38973;DHT22;25333;50.762;4.470;2023-04-24T07:44:18;8.90;99.90
38973;DHT22;25333;50.762;4.470;2023-04-24T07:46:44;8.90;99.90
38973;DHT22;25333;50.762;4.470;2023-04-24T07:49:10;8.90;99.90
38973;DHT22;25333;50.762;4.470;2023-04-24T07:51:35;8.90;99.90
38973;DHT22;25333;50.762;4.470;2023-04-24T07:54:04;8.90;99.90
38973;DHT22;25333;50.762;4.470;2023-04-24T07:56:32;8.90;99.90
38973;DHT22;25333;50.762;4.470;2023-04-24T07:58:58;8.70;99.90
38973;DHT22;25333;50.762;4.470;2023-04-24T08:01:24;8.60;99.90
38973;DHT22;25333;50.762;4.470;2023-04-24T08:03:50;8.60;99.90
38973;DHT22;25333;50.762;4.470;2023-04-24T08:06:16;8.60;99.90
38973;DHT22;25333;50.762;4.470;2023-04-24T08:08:42;8.70;99.90
38973;DHT22;25333;50.762;4.470;2023-04-24T08:11:08;8.70;99.90
38973;DHT22;25333;50.762;4.470;2023-04-24T08:13:33;8.80;99.90
38973;DHT22;25333;50.762;4.470;2023-04-24T08:15:59;8.90;99.90
38973;DHT22;25333;50.762;4.470;2023-04-24T08:18:25;8.80;99.90
38973;DHT22;25333;50.762;4.470;2023-04-24T08:20:51;8.80;99.90
38973;DHT22;25333;50.762;4.470;2023-04-24T08:23:17;8.90;99.90
38973;DHT22;25333;50.762;4.470;2023-04-24T08:25:43;9.00;99.90
38973;DHT22;25333;50.762;4.470;2023-04-24T08:28:09;9.10;99.90
38973;DHT22;25333;50.762;4.470;2023-04-24T08:30:36;9.30;99.90
38973;DHT22;25333;50.762;4.470;2023-04-24T08:33:02;9.30;99.90
38973;DHT22;25333;50.762;4.470;2023-04-24T08:35:28;9.30;99.90
38973;DHT22;25333;50.762;4.470;2023-04-24T08:37:53;9.40;99.90
38973;DHT22;25333;50.762;4.470;2023-04-24T08:40:27;9.30;99.90
38973;DHT22;25333;50.762;4.470;2023-04-24T08:42:54;9.40;99.90
38973;DHT22;25333;50.762;4.470;2023-04-24T08:45:22;9.40;99.90
38973;DHT22;25333;50.762;4.470;2023-04-24T08:47:48;9.40;99.90
38973;DHT22;25333;50.762;4.470;2023-04-24T08:50:15;9.50;99.90
38973;DHT22;25333;50.762;4.470;2023-04-24T08:52:42;9.50;99.90
38973;DHT22;25333;50.762;4.470;2023-04-24T08:55:08;9.50;99.90
38973;DHT22;25333;50.762;4.470;2023-04-24T08:57:35;9.70;99.90
38973;DHT22;25333;50.762;4.470;2023-04-24T09:00:01;10.00;99.90
38973;DHT22;25333;50.762;4.470;2023-04-24T09:02:27;10.20;99.90
38973;DHT22;25333;50.762;4.470;2023-04-24T09:04:55;10.50;99.90
38973;DHT22;25333;50.762;4.470;2023-04-24T09:07:24;10.60;99.90
38973;DHT22;25333;50.762;4.470;2023-04-24T09:09:51;10.60;99.90
38973;DHT22;25333;50.762;4.470;2023-04-24T09:12:18;10.70;99.90
38973;DHT22;25333;50.762;4.470;2023-04-24T09:14:45;11.00;99.90
38973;DHT22;25333;50.762;4.470;2023-04-24T09:17:11;11.10;99.90
38973;DHT22;25333;50.762;4.470;2023-04-24T09:19:37;11.00;99.90
38973;DHT22;25333;50.762;4.470;2023-04-24T09:22:07;11.10;99.90
38973;DHT22;25333;50.762;4.470;2023-04-24T09:24:34;11.30;99.90
38973;DHT22;25333;50.762;4.470;2023-04-24T09:27:01;11.30;99.90
38973;DHT22;25333;50.762;4.470;2023-04-24T09:29:27;11.10;99.90
38973;DHT22;25333;50.762;4.470;2023-04-24T09:31:53;10.90;99.90
38973;DHT22;25333;50.762;4.470;2023-04-24T09:34:23;10.90;99.90
38973;DHT22;25333;50.762;4.470;2023-04-24T09:36:49;10.90;99.90
38973;DHT22;25333;50.762;4.470;2023-04-24T09:39:16;10.90;99.90
38973;DHT22;25333;50.762;4.470;2023-04-24T09:41:50;10.60;99.90
38973;DHT22;25333;50.762;4.470;2023-04-24T09:44:20;10.40;99.90
38973;DHT22;25333;50.762;4.470;2023-04-24T09:46:58;10.60;99.90
38973;DHT22;25333;50.762;4.470;2023-04-24T09:49:30;10.70;99.90
38973;DHT22;25333;50.762;4.470;2023-04-24T09:52:30;10.90;99.90
38973;DHT22;25333;50.762;4.470;2023-04-24T09:54:56;10.90;99.90
38973;DHT22;25333;50.762;4.470;2023-04-24T09:57:22;10.80;99.90
38973;DHT22;25333;50.762;4.470;2023-04-24T09:59:48;10.60;99.90
38973;DHT22;25333;50.762;4.470;2023-04-24T10:02:18;10.60;99.90
38973;DHT22;25333;50.762;4.470;2023-04-24T10:04:54;10.70;99.90
38973;DHT22;25333;50.762;4.470;2023-04-24T10:07:21;10.80;99.90
38973;DHT22;25333;50.762;4.470;2023-04-24T10:09:47;10.80;99.90
38973;DHT22;25333;50.762;4.470;2023-04-24T10:12:13;10.70;99.90
38973;DHT22;25333;50.762;4.470;2023-04-24T10:14:40;10.60;99.90
38973;DHT22;25333;50.762;4.470;2023-04-24T10:17:06;10.70;99.90
38973;DHT22;25333;50.762;4.470;2023-04-24T10:19:32;10.60;99.90
38973;DHT22;25333;50.762;4.470;2023-04-24T10:21:59;10.80;99.90
38973;DHT22;25333;50.762;4.470;2023-04-24T10:24:26;11.00;99.90
38973;DHT22;25333;50.762;4.470;2023-04-24T10:26:52;11.00;99.90
38973;DHT22;25333;50.762;4.470;2023-04-24T10:29:19;10.90;99.90
38973;DHT22;25333;50.762;4.470;2023-04-24T10:31:45;10.80;99.90
38973;DHT22;25333;50.762;4.470;2023-04-24T10:34:11;10.80;99.90
38973;DHT22;25333;50.762;4.470;2023-04-24T10:36:41;10.80;99.90
38973;DHT22;25333;50.762;4.470;2023-04-24T10:39:11;11.00;99.90
38973;DHT22;25333;50.762;4.470;2023-04-24T10:41:38;11.20;99.90
38973;DHT22;25333;50.762;4.470;2023-04-24T10:44:08;11.20;99.90
38973;DHT22;25333;50.762;4.470;2023-04-24T10:46:36;11.20;99.90
38973;DHT22;25333;50.762;4.470;2023-04-24T10:49:06;11.10;99.90
38973;DHT22;25333;50.762;4.470;2023-04-24T10:51:44;11.10;99.90
38973;DHT22;25333;50.762;4.470;2023-04-24T10:54:24;10.80;99.90
38973;DHT22;25333;50.762;4.470;2023-04-24T10:56:51;10.70;99.90
38973;DHT22;25333;50.762;4.470;2023-04-24T10:59:35;10.70;99.90
38973;DHT22;25333;50.762;4.470;2023-04-24T11:02:00;10.80;99.90
38973;DHT22;25333;50.762;4.470;2023-04-24T11:04:31;10.80;99.90
38973;DHT22;25333;50.762;4.470;2023-04-24T11:06:57;10.80;99.90
38973;DHT22;25333;50.762;4.470;2023-04-24T11:09:26;10.80;99.90
38973;DHT22;25333;50.762;4.470;2023-04-24T11:12:05;10.70;99.90
38973;DHT22;25333;50.762;4.470;2023-04-24T11:17:34;10.80;99.90
38973;DHT22;25333;50.762;4.470;2023-04-24T11:20:04;10.90;99.90
38973;DHT22;25333;50.762;4.470;2023-04-24T11:22:33;10.90;99.90
38973;DHT22;25333;50.762;4.470;2023-04-24T11:25:03;10.90;99.90
38973;DHT22;25333;50.762;4.470;2023-04-24T11:27:31;10.90;99.90
38973;DHT22;25333;50.762;4.470;2023-04-24T11:35:08;11.10;99.90
38973;DHT22;25333;50.762;4.470;2023-04-24T11:37:39;11.00;99.90
38973;DHT22;25333;50.762;4.470;2023-04-24T11:40:15;11.00;99.90
38973;DHT22;25333;50.762;4.470;2023-04-24T11:42:45;10.80;99.90
38973;DHT22;25333;50.762;4.470;2023-04-24T11:45:13;10.70;99.90
38973;DHT22;25333;50.762;4.470;2023-04-24T11:47:40;10.80;99.90
38973;DHT22;25333;50.762;4.470;2023-04-24T11:50:09;10.80;99.90
38973;DHT22;25333;50.762;4.470;2023-04-24T11:52:42;11.10;99.90
38973;DHT22;25333;50.762;4.470;2023-04-24T11:55:23;11.40;99.90
38973;DHT22;25333;50.762;4.470;2023-04-24T11:57:54;11.40;99.90
38973;DHT22;25333;50.762;4.470;2023-04-24T12:03:02;11.50;99.90
38973;DHT22;25333;50.762;4.470;2023-04-24T12:05:31;11.70;99.90
38973;DHT22;25333;50.762;4.470;2023-04-24T12:08:02;11.90;99.90
38973;DHT22;25333;50.762;4.470;2023-04-24T12:10:32;12.00;99.90
38973;DHT22;25333;50.762;4.470;2023-04-24T12:12:59;12.30;99.90
38973;DHT22;25333;50.762;4.470;2023-04-24T12:15:26;12.50;99.90
38973;DHT22;25333;50.762;4.470;2023-04-24T12:17:53;12.40;99.90
38973;DHT22;25333;50.762;4.470;2023-04-24T12:20:31;12.20;99.90
38973;DHT22;25333;50.762;4.470;2023-04-24T12:22:59;12.10;99.90
38973;DHT22;25333;50.762;4.470;2023-04-24T12:25:27;12.00;99.90
38973;DHT22;25333;50.762;4.470;2023-04-24T12:28:10;11.90;99.90
38973;DHT22;25333;50.762;4.470;2023-04-24T12:30:48;11.90;99.90
38973;DHT22;25333;50.762;4.470;2023-04-24T12:33:21;12.20;99.90
38973;DHT22;25333;50.762;4.470;2023-04-24T12:35:48;12.60;99.90
38973;DHT22;25333;50.762;4.470;2023-04-24T12:38:21;12.90;99.90
38973;DHT22;25333;50.762;4.470;2023-04-24T12:40:47;12.90;99.90
38973;DHT22;25333;50.762;4.470;2023-04-24T12:43:19;12.80;99.90
38973;DHT22;25333;50.762;4.470;2023-04-24T12:45:45;12.60;99.90
38973;DHT22;25333;50.762;4.470;2023-04-24T12:48:11;12.50;99.90
38973;DHT22;25333;50.762;4.470;2023-04-24T12:50:58;12.40;99.90
38973;DHT22;25333;50.762;4.470;2023-04-24T12:53:29;12.20;99.90
38973;DHT22;25333;50.762;4.470;2023-04-24T12:55:57;12.10;99.90
38973;DHT22;25333;50.762;4.470;2023-04-24T12:58:25;12.20;99.90
38973;DHT22;25333;50.762;4.470;2023-04-24T13:01:16;12.20;99.70
38973;DHT22;25333;50.762;4.470;2023-04-24T13:04:09;12.00;99.90
38973;DHT22;25333;50.762;4.470;2023-04-24T13:09:44;12.00;99.90
38973;DHT22;25333;50.762;4.470;2023-04-24T13:12:54;12.00;99.90
38973;DHT22;25333;50.762;4.470;2023-04-24T13:15:43;12.10;99.90
38973;DHT22;25333;50.762;4.470;2023-04-24T13:18:21;12.10;99.90
38973;DHT22;25333;50.762;4.470;2023-04-24T13:21:13;12.30;99.90
38973;DHT22;25333;50.762;4.470;2023-04-24T13:23:58;12.40;99.90
38973;DHT22;25333;50.762;4.470;2023-04-24T13:26:53;12.50;99.90
38973;DHT22;25333;50.762;4.470;2023-04-24T13:29:23;12.30;99.20
38973;DHT22;25333;50.762;4.470;2023-04-24T13:32:00;12.00;99.40
38973;DHT22;25333;50.762;4.470;2023-04-24T13:34:26;12.00;99.90
38973;DHT22;25333;50.762;4.470;2023-04-24T13:36:56;12.00;99.90
38973;DHT22;25333;50.762;4.470;2023-04-24T13:39:23;11.90;99.90
38973;DHT22;25333;50.762;4.470;2023-04-24T13:41:57;11.90;99.90
38973;DHT22;25333;50.762;4.470;2023-04-24T13:44:23;11.90;99.90
38973;DHT22;25333;50.762;4.470;2023-04-24T13:46:51;12.00;99.90
38973;DHT22;25333;50.762;4.470;2023-04-24T13:49:19;12.00;99.90
38973;DHT22;25333;50.762;4.470;2023-04-24T13:51:53;12.00;99.90
38973;DHT22;25333;50.762;4.470;2023-04-24T13:54:24;12.10;99.90
38973;DHT22;25333;50.762;4.470;2023-04-24T13:56:52;12.10;99.90
38973;DHT22;25333;50.762;4.470;2023-04-24T13:59:19;12.00;99.90
38973;DHT22;25333;50.762;4.470;2023-04-24T14:01:54;12.00;99.90
38973;DHT22;25333;50.762;4.470;2023-04-24T14:04:28;12.00;99.90
38973;DHT22;25333;50.762;4.470;2023-04-24T14:06:57;11.90;99.90
38973;DHT22;25333;50.762;4.470;2023-04-24T14:09:29;12.00;99.90
38973;DHT22;25333;50.762;4.470;2023-04-24T14:11:57;11.90;99.90
38973;DHT22;25333;50.762;4.470;2023-04-24T14:14:24;11.80;99.20
38973;DHT22;25333;50.762;4.470;2023-04-24T14:16:51;11.80;99.60
38973;DHT22;25333;50.762;4.470;2023-04-24T14:19:37;11.80;99.90
38973;DHT22;25333;50.762;4.470;2023-04-24T14:22:03;12.00;99.90
38973;DHT22;25333;50.762;4.470;2023-04-24T14:24:28;12.00;99.90
38973;DHT22;25333;50.762;4.470;2023-04-24T14:26:55;12.00;99.90
38973;DHT22;25333;50.762;4.470;2023-04-24T14:29:21;12.00;99.90
38973;DHT22;25333;50.762;4.470;2023-04-24T14:31:47;12.10;99.90
38973;DHT22;25333;50.762;4.470;2023-04-24T14:34:14;12.00;99.90
38973;DHT22;25333;50.762;4.470;2023-04-24T14:36:40;12.00;99.90
38973;DHT22;25333;50.762;4.470;2023-04-24T14:39:06;12.00;99.30
38973;DHT22;25333;50.762;4.470;2023-04-24T14:41:34;11.70;98.40
38973;DHT22;25333;50.762;4.470;2023-04-24T14:44:20;11.70;99.30
38973;DHT22;25333;50.762;4.470;2023-04-24T14:46:57;11.60;99.10
38973;DHT22;25333;50.762;4.470;2023-04-24T14:49:46;11.50;99.90
38973;DHT22;25333;50.762;4.470;2023-04-24T14:52:43;11.50;99.40
38973;DHT22;25333;50.762;4.470;2023-04-24T14:55:58;11.40;99.20
38973;DHT22;25333;50.762;4.470;2023-04-24T14:58:48;11.50;99.90
38973;DHT22;25333;50.762;4.470;2023-04-24T15:01:32;11.50;99.90
38973;DHT22;25333;50.762;4.470;2023-04-24T15:04:03;11.60;99.90
38973;DHT22;25333;50.762;4.470;2023-04-24T15:06:33;11.60;99.50
38973;DHT22;25333;50.762;4.470;2023-04-24T15:09:48;11.60;99.90
38973;DHT22;25333;50.762;4.470;2023-04-24T15:12:28;11.50;98.20
38973;DHT22;25333;50.762;4.470;2023-04-24T15:15:35;11.40;98.80
38973;DHT22;25333;50.762;4.470;2023-04-24T15:18:22;11.50;99.30
38973;DHT22;25333;50.762;4.470;2023-04-24T15:20:59;11.40;99.10
38973;DHT22;25333;50.762;4.470;2023-04-24T15:23:40;11.40;98.90
38973;DHT22;25333;50.762;4.470;2023-04-24T15:26:05;11.40;99.90
38973;DHT22;25333;50.762;4.470;2023-04-24T15:28:32;11.40;99.90
38973;DHT22;25333;50.762;4.470;2023-04-24T15:31:02;11.50;99.90
38973;DHT22;25333;50.762;4.470;2023-04-24T15:33:48;11.50;99.90
38973;DHT22;25333;50.762;4.470;2023-04-24T15:36:24;11.60;99.90
38973;DHT22;25333;50.762;4.470;2023-04-24T15:38:51;11.50;98.30
38973;DHT22;25333;50.762;4.470;2023-04-24T15:41:16;11.50;99.30
38973;DHT22;25333;50.762;4.470;2023-04-24T15:43:42;11.50;99.30
38973;DHT22;25333;50.762;4.470;2023-04-24T15:46:10;11.50;99.30
38973;DHT22;25333;50.762;4.470;2023-04-24T15:48:41;11.50;99.20
38973;DHT22;25333;50.762;4.470;2023-04-24T15:51:08;11.60;99.90
38973;DHT22;25333;50.762;4.470;2023-04-24T15:53:37;11.60;99.90
38973;DHT22;25333;50.762;4.470;2023-04-24T15:56:34;11.50;98.30
38973;DHT22;25333;50.762;4.470;2023-04-24T15:59:42;11.50;99.90
38973;DHT22;25333;50.762;4.470;2023-04-24T16:02:31;11.50;99.20
38973;DHT22;25333;50.762;4.470;2023-04-24T16:05:08;11.40;99.10
38973;DHT22;25333;50.762;4.470;2023-04-24T16:07:39;11.40;99.10
38973;DHT22;25333;50.762;4.470;2023-04-24T16:10:16;11.30;98.60
38973;DHT22;25333;50.762;4.470;2023-04-24T16:13:08;11.30;99.90
38973;DHT22;25333;50.762;4.470;2023-04-24T16:16:05;11.40;99.90
38973;DHT22;25333;50.762;4.470;2023-04-24T16:18:31;11.40;98.60
38973;DHT22;25333;50.762;4.470;2023-04-24T16:21:39;11.30;98.70
38973;DHT22;25333;50.762;4.470;2023-04-24T16:24:47;11.40;98.30
38973;DHT22;25333;50.762;4.470;2023-04-24T16:28:15;11.40;99.40
38973;DHT22;25333;50.762;4.470;2023-04-24T16:31:19;11.50;99.00
38973;DHT22;25333;50.762;4.470;2023-04-24T16:34:08;11.40;99.40
38973;DHT22;25333;50.762;4.470;2023-04-24T16:37:04;11.50;99.30
38973;DHT22;25333;50.762;4.470;2023-04-24T16:39:43;11.40;98.80
38973;DHT22;25333;50.762;4.470;2023-04-24T16:42:13;11.40;99.10
38973;DHT22;25333;50.762;4.470;2023-04-24T16:44:40;11.40;99.30
38973;DHT22;25333;50.762;4.470;2023-04-24T16:47:09;11.50;99.90
38973;DHT22;25333;50.762;4.470;2023-04-24T16:49:38;11.50;99.50
38973;DHT22;25333;50.762;4.470;2023-04-24T16:52:06;11.60;99.90
38973;DHT22;25333;50.762;4.470;2023-04-24T16:54:33;11.60;99.90